Time;durP1;ratioP1;P1;durP2;ratioP2;P2;SDS_P1;SDS_P2;PMS_P1;PMS_P2;Temp;Humidity;BMP_temperature;BMP_pressure;BME280_temperature;BME280_humidity;BME280_pressure;Samples;Min_cycle;Max_cycle;Signal;HPM_P1;HPM_P2
2023/06/09 00:01:44;;;;;;;;;23.67;21.67;;;;;24.55;44.34;100568.34;4934424;28;45636;-69
2023/06/09 00:04:13;;;;;;;;;23.67;23.67;;;;;24.55;44.37;100564.81;4933019;28;45522;-68
2023/06/09 00:06:39;;;;;;;;;28.00;26.33;;;;;24.61;44.33;100558.25;4929513;28;46218;-70
2023/06/09 00:09:06;;;;;;;;;27.67;26.33;;;;;24.65;44.32;100568.66;4933989;28;45972;-70
2023/06/09 00:11:32;;;;;;;;;24.67;23.33;;;;;24.49;44.45;100552.69;4935649;28;45515;-69
2023/06/09 00:13:58;;;;;;;;;27.00;23.67;;;;;24.55;44.70;100559.47;4939797;28;45429;-68
2023/06/09 00:16:24;;;;;;;;;26.00;22.67;;;;;24.55;44.38;100565.69;4942523;28;45373;-67
2023/06/09 00:18:51;;;;;;;;;26.33;25.33;;;;;24.45;44.74;100561.81;4942007;28;45626;-69
2023/06/09 00:21:18;;;;;;;;;25.67;24.67;;;;;24.38;45.00;100541.69;4942090;28;45488;-69
2023/06/09 00:23:45;;;;;;;;;29.00;24.00;;;;;24.45;44.83;100553.78;4941183;28;45471;-68
2023/06/09 00:26:11;;;;;;;;;28.33;27.33;;;;;24.41;45.32;100548.69;4937820;28;45388;-70
2023/06/09 00:28:37;;;;;;;;;26.00;24.33;;;;;24.35;45.18;100560.63;4936146;28;45468;-69
2023/06/09 00:31:06;;;;;;;;;23.67;23.67;;;;;24.35;45.21;100552.59;4952532;28;45473;-67
2023/06/09 00:33:32;;;;;;;;;27.00;23.00;;;;;;;;4944862;28;45683;-69
2023/06/09 00:35:58;;;;;;;;;26.33;25.00;;;;;24.25;45.39;100538.88;4938592;28;45763;-68
2023/06/09 00:38:24;;;;;;;;;23.67;22.33;;;;;24.35;45.60;100544.56;4948368;28;47736;-69
2023/06/09 00:40:50;;;;;;;;;30.33;24.67;;;;;24.30;45.27;100547.50;4961518;28;45494;-67
2023/06/09 00:43:16;;;;;;;;;26.00;24.33;;;;;24.34;44.95;100543.72;4961240;28;45503;-68
2023/06/09 00:45:41;;;;;;;;;24.00;20.67;;;;;24.27;45.63;100538.78;4959932;28;45551;-68
2023/06/09 00:48:07;;;;;;;;;27.33;24.33;;;;;24.27;45.58;100520.91;4959600;28;46898;-69
2023/06/09 00:50:34;;;;;;;;;26.33;23.33;;;;;24.37;45.18;100531.97;4944951;28;45633;-69
2023/06/09 00:52:59;;;;;;;;;23.33;23.00;;;;;24.39;45.45;100538.06;4937665;28;45353;-68
2023/06/09 00:55:26;;;;;;;;;22.00;22.00;;;;;24.38;44.92;100528.31;4937737;28;45595;-69
2023/06/09 00:57:56;;;;;;;;;25.33;22.33;;;;;24.33;45.21;100528.59;4939052;28;45460;-68
2023/06/09 01:00:29;;;;;;;;;30.00;25.33;;;;;24.38;45.00;100516.75;4938825;28;45416;-68
2023/06/09 01:03:02;;;;;;;;;29.00;23.67;;;;;24.39;45.11;100522.00;4937764;28;45323;-68
2023/06/09 01:05:34;;;;;;;;;23.00;21.33;;;;;24.42;45.05;100516.47;4941786;28;45348;-68
2023/06/09 01:08:14;;;;;;;;;24.00;23.67;;;;;24.43;44.93;100523.53;4955392;28;47717;-68
2023/06/09 01:11:13;;;;;;;;;24.00;23.33;;;;;24.43;45.09;100512.84;4960462;28;46011;-69
2023/06/09 01:14:05;;;;;;;;;21.67;20.33;;;;;24.54;44.83;100517.59;4959678;28;45457;-68
2023/06/09 01:16:30;;;;;;;;;22.67;22.67;;;;;24.58;45.07;100515.59;4971437;28;45711;-68
2023/06/09 01:18:59;;;;;;;;;23.00;20.00;;;;;24.58;44.86;100511.09;4955293;28;45360;-69
2023/06/09 01:21:41;;;;;;;;;26.67;25.00;;;;;24.63;45.45;100511.69;4954933;28;45886;-70
2023/06/09 01:24:58;;;;;;;;;20.67;16.33;;;;;24.63;45.06;100503.66;4952379;28;45690;-71
2023/06/09 01:27:25;;;;;;;;;28.33;23.67;;;;;24.65;45.50;100511.59;4928162;28;45535;-70
2023/06/09 01:29:55;;;;;;;;;25.00;23.00;;;;;24.61;45.66;100499.34;4938893;28;45562;-71
2023/06/09 01:32:23;;;;;;;;;25.00;25.00;;;;;24.54;45.48;100491.69;4937040;28;45455;-69
2023/06/09 01:34:50;;;;;;;;;26.67;24.67;;;;;24.55;45.55;100498.75;4937177;28;45500;-69
2023/06/09 01:37:16;;;;;;;;;26.33;25.00;;;;;24.47;45.98;100494.81;4962938;28;45632;-71
2023/06/09 01:39:42;;;;;;;;;27.00;23.33;;;;;24.48;45.83;100502.75;4954894;28;47948;-69
2023/06/09 01:42:07;;;;;;;;;28.67;26.00;;;;;24.53;45.84;100497.13;4956351;28;45578;-68
2023/06/09 01:44:36;;;;;;;;;29.67;27.33;;;;;24.37;46.17;100502.50;4959617;28;45428;-68
2023/06/09 01:47:01;;;;;;;;;30.67;26.00;;;;;;;;4944786;28;45358;-70
2023/06/09 01:49:39;;;;;;;;;34.00;28.67;;;;;24.26;46.19;100504.94;4935817;28;46999;-69
2023/06/09 01:52:33;;;;;;;;;29.33;28.33;;;;;24.26;45.94;100496.91;4935591;28;45433;-69
2023/06/09 01:55:02;;;;;;;;;34.33;29.33;;;;;24.19;46.11;100500.91;4937097;28;45427;-69
2023/06/09 01:58:09;;;;;;;;;24.67;24.00;;;;;24.15;46.00;100494.00;4952582;28;45458;-69
2023/06/09 02:00:37;;;;;;;;;27.00;25.33;;;;;24.07;46.42;100492.63;4915314;28;45631;-69
2023/06/09 02:03:06;;;;;;;;;24.67;22.33;;;;;24.04;46.36;100500.84;4933238;28;45397;-69
2023/06/09 02:05:35;;;;;;;;;27.33;25.33;;;;;24.02;46.54;100499.22;4940177;28;45246;-70
2023/06/09 02:08:01;;;;;;;;;23.33;22.00;;;;;23.94;46.90;100496.09;4951938;28;45516;-70
2023/06/09 02:10:27;;;;;;;;;25.33;24.00;;;;;23.98;47.41;100497.66;4936683;28;45318;-70
2023/06/09 02:12:52;;;;;;;;;26.33;25.33;;;;;23.78;46.93;100488.13;4934966;28;45765;-71
2023/06/09 02:15:19;;;;;;;;;31.33;27.00;;;;;23.70;47.23;100489.38;4935380;28;46107;-70
2023/06/09 02:17:45;;;;;;;;;27.33;26.67;;;;;23.74;47.23;100498.13;4937081;28;45350;-71
2023/06/09 02:20:11;;;;;;;;;28.00;26.67;;;;;23.57;47.48;100490.16;4934720;28;45508;-69
2023/06/09 02:22:37;;;;;;;;;30.67;26.33;;;;;23.58;47.19;100490.06;4935329;28;45453;-70
2023/06/09 02:25:04;;;;;;;;;24.67;24.67;;;;;23.50;48.07;100487.81;4935310;28;45517;-69
2023/06/09 02:27:30;;;;;;;;;27.00;27.00;;;;;23.56;47.88;100491.94;4936759;28;45858;-71
2023/06/09 02:29:55;;;;;;;;;21.67;20.67;;;;;23.48;47.89;100486.19;4939299;28;45576;-70
2023/06/09 02:32:22;;;;;;;;;34.00;27.33;;;;;23.41;48.10;100480.31;4937472;28;45279;-69
2023/06/09 02:34:48;;;;;;;;;26.00;25.33;;;;;23.46;48.06;100480.06;4936875;28;45477;-70
2023/06/09 02:37:15;;;;;;;;;27.00;25.33;;;;;23.45;47.50;100460.50;4936453;28;45468;-69
2023/06/09 02:39:41;;;;;;;;;22.67;22.67;;;;;23.45;47.99;100456.97;4953464;28;45631;-70
2023/06/09 02:42:07;;;;;;;;;24.67;23.33;;;;;23.47;48.09;100465.75;4936387;28;45444;-70
2023/06/09 02:44:33;;;;;;;;;26.67;25.00;;;;;23.42;48.19;100468.69;4951265;28;45464;-69
2023/06/09 02:46:59;;;;;;;;;27.00;22.67;;;;;23.43;47.89;100464.19;4938120;28;45509;-71
2023/06/09 02:49:25;;;;;;;;;24.00;23.67;;;;;23.37;47.86;100468.09;4936311;28;46084;-71
2023/06/09 02:51:50;;;;;;;;;24.33;22.33;;;;;23.39;48.11;100463.50;4935896;28;45507;-70
2023/06/09 02:54:16;;;;;;;;;26.00;21.67;;;;;23.27;48.15;100440.97;4936517;28;45345;-70
2023/06/09 02:56:42;;;;;;;;;28.67;27.00;;;;;23.33;48.45;100465.66;4936764;28;45329;-71
2023/06/09 02:59:07;;;;;;;;;27.00;24.67;;;;;23.32;48.12;100469.28;4938800;28;45590;-70
2023/06/09 03:01:34;;;;;;;;;27.00;23.67;;;;;23.36;48.00;100469.00;4940212;28;45539;-71
2023/06/09 03:04:06;;;;;;;;;27.33;24.00;;;;;23.37;48.03;100457.41;4940622;28;45191;-72
2023/06/09 03:06:36;;;;;;;;;31.00;25.33;;;;;23.40;48.07;100465.22;4938902;28;45433;-71
2023/06/09 03:09:02;;;;;;;;;23.00;23.00;;;;;23.34;47.81;100465.56;4939895;28;45548;-70
2023/06/09 03:11:29;;;;;;;;;23.00;22.33;;;;;23.39;47.68;100467.97;4940156;28;45495;-72
2023/06/09 03:13:54;;;;;;;;;25.00;23.00;;;;;23.46;47.45;100477.38;4936051;28;45490;-69
2023/06/09 03:16:20;;;;;;;;;28.67;26.67;;;;;23.42;47.94;100470.47;4934560;28;45639;-70
2023/06/09 03:18:46;;;;;;;;;25.00;21.33;;;;;23.25;48.31;100461.63;4935898;28;45708;-70
2023/06/09 03:21:13;;;;;;;;;28.67;27.67;;;;;23.28;48.56;100463.25;4936055;28;45406;-70
2023/06/09 03:23:40;;;;;;;;;26.00;24.00;;;;;23.18;48.55;100486.94;4935991;28;45479;-69
2023/06/09 03:26:06;;;;;;;;;29.00;26.67;;;;;23.17;48.46;100474.50;4934941;28;45461;-68
2023/06/09 03:28:32;;;;;;;;;21.00;20.67;;;;;23.16;48.43;100471.91;4934083;28;46985;-69
2023/06/09 03:30:58;;;;;;;;;19.33;18.33;;;;;23.23;48.17;100482.19;4934403;28;45461;-70
2023/06/09 03:33:24;;;;;;;;;25.67;23.33;;;;;23.29;48.21;100479.19;4936377;28;45371;-69
2023/06/09 03:35:50;;;;;;;;;27.00;25.33;;;;;23.25;48.63;100480.31;4940026;28;45426;-70
2023/06/09 03:38:17;;;;;;;;;23.00;23.00;;;;;23.23;48.07;100478.66;4939476;28;46042;-69
2023/06/09 03:40:43;;;;;;;;;25.67;25.67;;;;;23.22;48.32;100483.13;4939524;28;45383;-70
2023/06/09 03:43:11;;;;;;;;;28.67;25.67;;;;;23.10;48.18;100462.44;4948940;28;45339;-69
2023/06/09 03:45:37;;;;;;;;;26.33;24.33;;;;;23.19;48.20;100471.75;4959030;28;45462;-72
2023/06/09 03:48:04;;;;;;;;;26.00;25.67;;;;;23.02;48.50;100468.19;4958028;28;45339;-70
2023/06/09 03:50:30;;;;;;;;;27.00;23.33;;;;;22.90;48.82;100463.50;4955262;28;45579;-71
2023/06/09 03:52:55;;;;;;;;;25.33;24.67;;;;;22.74;48.62;100457.25;4957067;28;45721;-71
2023/06/09 03:55:22;;;;;;;;;29.33;25.67;;;;;22.80;48.66;100471.13;4954972;28;45930;-70
2023/06/09 03:57:48;;;;;;;;;28.00;24.33;;;;;22.85;48.68;100482.44;4952310;28;47437;-70
2023/06/09 04:00:15;;;;;;;;;25.67;25.00;;;;;22.87;48.63;100474.31;4958554;28;45442;-70
2023/06/09 04:02:41;;;;;;;;;24.67;24.33;;;;;22.84;48.68;100464.66;4947114;28;45360;-69
2023/06/09 04:05:07;;;;;;;;;21.67;19.33;;;;;22.82;48.86;100468.38;4950123;28;45412;-70
2023/06/09 04:07:33;;;;;;;;;26.33;25.33;;;;;22.83;48.67;100470.09;4937237;28;45429;-70
2023/06/09 04:09:59;;;;;;;;;25.33;23.00;;;;;22.83;48.91;100464.78;4942979;28;45647;-70
2023/06/09 04:12:25;;;;;;;;;27.33;25.33;;;;;22.76;49.02;100469.56;4953349;28;45729;-70
2023/06/09 04:14:51;;;;;;;;;30.33;28.33;;;;;22.73;48.97;100467.06;4954340;28;45559;-70
2023/06/09 04:17:16;;;;;;;;;27.67;27.00;;;;;22.62;49.17;100464.09;4954435;28;45445;-71
2023/06/09 04:19:42;;;;;;;;;29.33;27.33;;;;;22.60;49.05;100449.97;4954511;28;45673;-70
2023/06/09 04:22:10;;;;;;;;;28.00;25.33;;;;;22.57;49.47;100456.31;4953009;28;45410;-70
2023/06/09 04:24:36;;;;;;;;;32.33;28.33;;;;;22.51;50.24;100463.78;4954314;28;45777;-70
2023/06/09 04:27:03;;;;;;;;;26.33;24.67;;;;;22.52;49.97;100477.06;4957243;28;45577;-70
2023/06/09 04:29:32;;;;;;;;;26.33;22.67;;;;;22.34;49.79;100446.84;4953491;28;45431;-71
2023/06/09 04:31:58;;;;;;;;;33.00;28.00;;;;;22.58;49.47;100467.84;4953430;28;45543;-70
2023/06/09 04:34:26;;;;;;;;;32.00;28.00;;;;;22.65;49.58;100467.44;4952505;28;45579;-71
2023/06/09 04:36:53;;;;;;;;;32.33;30.33;;;;;22.71;48.87;100460.06;4955108;28;46770;-70
2023/06/09 04:39:19;;;;;;;;;26.67;25.33;;;;;22.75;48.91;100458.94;4958011;28;45337;-69
2023/06/09 04:41:47;;;;;;;;;32.00;26.00;;;;;22.83;48.77;100464.78;4956477;28;45495;-71
2023/06/09 04:44:13;;;;;;;;;29.00;25.33;;;;;22.84;48.95;100475.34;4954075;28;45448;-70
2023/06/09 04:46:41;;;;;;;;;30.00;30.00;;;;;22.75;49.23;100474.97;4948181;28;48036;-70
2023/06/09 04:49:10;;;;;;;;;25.33;22.00;;;;;22.73;48.67;100469.72;4934834;28;45431;-69
2023/06/09 04:51:46;;;;;;;;;29.67;28.67;;;;;22.86;48.50;100480.63;4939212;28;45803;-70
2023/06/09 04:54:16;;;;;;;;;35.33;29.00;;;;;22.87;48.06;100477.00;4954201;28;45490;-69
2023/06/09 04:56:43;;;;;;;;;32.67;29.33;;;;;22.92;47.99;100482.09;4957218;28;45921;-70
2023/06/09 04:59:11;;;;;;;;;26.67;23.67;;;;;22.93;48.23;100478.50;4971833;28;45383;-70
2023/06/09 05:01:37;;;;;;;;;28.00;27.33;;;;;23.00;48.00;100488.78;4955658;28;45450;-70
2023/06/09 05:04:06;;;;;;;;;28.33;27.33;;;;;22.96;47.40;100486.31;4959915;28;45537;-70
2023/06/09 05:06:32;;;;;;;;;29.33;27.00;;;;;22.88;47.72;100475.22;4940959;28;45643;-70
2023/06/09 05:08:58;;;;;;;;;30.33;27.67;;;;;22.73;48.04;100450.16;4939802;28;45449;-70
2023/06/09 05:11:23;;;;;;;;;32.33;25.00;;;;;22.98;47.77;100481.78;4937531;28;45460;-68
2023/06/09 05:13:49;;;;;;;;;30.00;26.33;;;;;23.05;47.85;100481.38;4937560;28;45845;-69
2023/06/09 05:16:15;;;;;;;;;27.00;25.00;;;;;23.12;47.91;100489.06;4952196;28;45603;-71
2023/06/09 05:18:44;;;;;;;;;29.67;28.00;;;;;23.10;47.71;100473.13;4936253;28;45673;-70
2023/06/09 05:21:12;;;;;;;;;31.00;29.67;;;;;23.21;47.49;100481.41;4945430;28;45500;-70
2023/06/09 05:23:37;;;;;;;;;28.67;26.33;;;;;23.24;48.23;100485.72;4960420;28;45562;-69
2023/06/09 05:26:03;;;;;;;;;32.33;29.67;;;;;23.28;47.50;100488.16;4957028;28;46007;-70
2023/06/09 05:28:28;;;;;;;;;31.67;26.00;;;;;23.28;47.34;100481.94;4957383;28;45493;-69
2023/06/09 05:30:54;;;;;;;;;35.33;33.00;;;;;23.35;46.70;100494.03;4957823;28;45397;-70
2023/06/09 05:33:20;;;;;;;;;43.33;31.00;;;;;23.40;46.41;100485.75;4958053;28;45551;-69
2023/06/09 05:35:47;;;;;;;;;35.33;31.67;;;;;23.39;46.74;100486.69;4956035;28;45392;-69
2023/06/09 05:38:12;;;;;;;;;32.67;28.33;;;;;23.53;46.32;100494.81;4955184;28;45382;-70
2023/06/09 05:40:38;;;;;;;;;31.67;28.67;;;;;23.53;46.41;100492.13;4971461;28;45291;-69
2023/06/09 05:43:03;;;;;;;;;32.33;26.00;;;;;23.59;46.58;100505.16;4956413;28;45811;-69
2023/06/09 05:45:29;;;;;;;;;28.33;26.00;;;;;23.58;45.99;100497.22;4955188;28;46593;-69
2023/06/09 05:47:55;;;;;;;;;24.00;23.67;;;;;23.56;46.18;100505.31;4956524;28;45344;-70
2023/06/09 05:50:20;;;;;;;;;31.33;24.67;;;;;23.45;46.24;100481.88;4949213;28;45460;-68
2023/06/09 05:52:45;;;;;;;;;31.67;27.33;;;;;23.67;45.83;100507.41;4941486;28;45577;-69
2023/06/09 05:55:11;;;;;;;;;23.67;23.67;;;;;23.67;45.64;100502.06;4941419;28;46177;-70
2023/06/09 05:57:39;;;;;;;;;26.67;25.67;;;;;23.60;45.20;100485.50;4941274;28;45312;-71
2023/06/09 06:00:07;;;;;;;;;26.33;26.33;;;;;23.78;45.17;100498.81;4941755;28;45238;-70
2023/06/09 06:02:33;;;;;;;;;26.00;23.00;;;;;23.88;45.28;100500.00;4942580;28;45422;-70
2023/06/09 06:04:59;;;;;;;;;35.00;29.67;;;;;23.87;44.76;100491.13;4952666;28;46334;-70
2023/06/09 06:07:24;;;;;;;;;26.33;21.33;;;;;24.07;44.11;100514.03;4941230;28;45507;-71
2023/06/09 06:09:50;;;;;;;;;27.00;26.33;;;;;24.21;44.10;100509.72;4941093;28;45754;-70
2023/06/09 06:12:15;;;;;;;;;29.67;25.33;;;;;24.21;43.94;100499.00;4939373;28;45408;-70
2023/06/09 06:14:41;;;;;;;;;30.33;26.67;;;;;24.41;43.91;100514.75;4936842;28;46393;-70
2023/06/09 06:17:06;;;;;;;;;25.33;24.00;;;;;24.42;43.33;100502.25;4936036;28;45580;-69
2023/06/09 06:19:32;;;;;;;;;32.33;29.33;;;;;24.43;43.81;100503.94;4935532;28;45388;-70
2023/06/09 06:21:57;;;;;;;;;28.00;24.67;;;;;;;;4938579;28;45343;-70
2023/06/09 06:24:23;;;;;;;;;32.33;28.33;;;;;24.32;43.79;100493.88;4956131;28;45573;-70
2023/06/09 06:26:48;;;;;;;;;24.67;24.67;;;;;24.40;44.09;100491.63;4954725;28;45638;-70
2023/06/09 06:29:14;;;;;;;;;25.67;25.67;;;;;24.27;43.87;100486.09;4955952;28;45396;-69
2023/06/09 06:31:39;;;;;;;;;33.00;30.33;;;;;24.38;43.54;100496.19;4958917;28;45960;-71
2023/06/09 06:34:05;;;;;;;;;29.00;28.33;;;;;24.31;43.85;100487.66;4959773;28;45500;-69
2023/06/09 06:36:30;;;;;;;;;26.67;25.00;;;;;24.39;44.01;100497.91;4953778;28;45441;-70
2023/06/09 06:38:56;;;;;;;;;33.67;29.67;;;;;24.45;43.54;100500.22;4955606;28;45381;-69
2023/06/09 06:41:21;;;;;;;;;32.67;29.33;;;;;24.45;43.50;100494.03;4955689;28;45360;-70
2023/06/09 06:43:49;;;;;;;;;28.33;24.33;;;;;24.54;43.23;100501.53;4957928;28;45519;-68
2023/06/09 06:46:17;;;;;;;;;28.67;24.00;;;;;24.63;43.39;100487.59;4960069;28;45459;-71
2023/06/09 06:48:43;;;;;;;;;29.67;27.33;;;;;24.69;42.86;100484.53;4959890;28;45385;-70
2023/06/09 06:51:09;;;;;;;;;4.00;1.67;;;;;24.89;42.54;100501.19;4960071;28;45337;-71
2023/06/09 06:53:37;;;;;;;;;22.33;21.67;;;;;25.05;42.70;100506.47;4939818;28;46530;-68
2023/06/09 06:56:03;;;;;;;;;25.67;21.00;;;;;25.21;42.33;100512.63;4935843;28;45608;-69
2023/06/09 06:58:29;;;;;;;;;23.67;23.67;;;;;25.27;42.35;100498.84;4934760;28;45631;-69
2023/06/09 07:00:55;;;;;;;;;26.33;24.67;;;;;25.43;42.59;100500.53;4936658;28;45683;-69
2023/06/09 07:03:23;;;;;;;;;27.33;24.00;;;;;25.47;42.07;100500.25;4935441;28;45764;-70
2023/06/09 07:05:50;;;;;;;;;29.33;26.00;;;;;25.53;43.00;100507.03;4935489;28;45593;-70
2023/06/09 07:08:15;;;;;;;;;27.00;25.00;;;;;25.62;42.21;100511.81;4953000;28;45475;-70
2023/06/09 07:10:41;;;;;;;;;26.00;25.00;;;;;25.38;42.82;100498.16;4953754;28;45499;-69
2023/06/09 07:13:06;;;;;;;;;29.00;25.67;;;;;25.46;42.14;100511.06;4935650;28;46094;-70
2023/06/09 07:15:32;;;;;;;;;25.33;25.00;;;;;25.25;42.76;100492.72;4939163;28;45357;-70
2023/06/09 07:17:57;;;;;;;;;25.33;25.33;;;;;25.32;43.41;100504.78;4938884;28;45508;-69
2023/06/09 07:20:23;;;;;;;;;27.00;24.33;;;;;25.51;42.71;100500.94;4935890;28;45302;-70
2023/06/09 07:22:51;;;;;;;;;27.33;24.33;;;;;25.53;42.13;100496.31;4935325;28;46135;-70
2023/06/09 07:25:17;;;;;;;;;26.00;25.33;;;;;25.62;41.97;100492.19;4935448;28;45427;-69
2023/06/09 07:27:42;;;;;;;;;29.00;29.00;;;;;25.65;41.90;100503.59;4938083;28;45683;-70
2023/06/09 07:30:09;;;;;;;;;31.33;29.00;;;;;25.62;41.73;100519.00;4939876;28;45307;-69
2023/06/09 07:32:35;;;;;;;;;28.00;25.33;;;;;25.58;42.31;100521.03;4939574;28;46133;-68
2023/06/09 07:35:01;;;;;;;;;29.67;24.33;;;;;25.51;42.98;100527.75;4937077;28;46007;-70
2023/06/09 07:37:27;;;;;;;;;29.00;27.33;;;;;25.43;42.92;100522.00;4936033;28;45357;-71
2023/06/09 07:39:53;;;;;;;;;22.33;22.33;;;;;25.65;42.97;100527.72;4936036;28;45500;-70
2023/06/09 07:42:18;;;;;;;;;28.33;24.33;;;;;25.75;42.75;100514.56;4953772;28;48272;-69
2023/06/09 07:44:44;;;;;;;;;29.00;29.00;;;;;25.90;42.02;100515.44;4954629;28;45452;-70
2023/06/09 07:47:10;;;;;;;;;26.00;24.67;;;;;26.06;41.79;100517.97;4952827;28;45325;-70
2023/06/09 07:49:36;;;;;;;;;29.33;26.00;;;;;26.16;41.55;100519.06;4939787;28;45486;-70
2023/06/09 07:52:04;;;;;;;;;34.67;30.67;;;;;26.04;41.99;100506.47;4937133;28;45726;-71
2023/06/09 07:54:29;;;;;;;;;30.00;27.00;;;;;26.17;42.28;100523.47;4934951;28;46062;-69
2023/06/09 07:56:55;;;;;;;;;26.67;25.00;;;;;26.18;41.12;100517.16;4938055;28;45527;-70
2023/06/09 07:59:21;;;;;;;;;32.00;28.33;;;;;26.21;41.30;100519.63;4936439;28;45459;-69
2023/06/09 08:01:47;;;;;;;;;34.67;29.33;;;;;26.20;41.38;100507.16;4934682;28;46042;-70
2023/06/09 08:04:13;;;;;;;;;28.33;26.33;;;;;26.19;41.57;100522.38;4937867;28;45482;-69
2023/06/09 08:06:39;;;;;;;;;26.00;25.33;;;;;26.27;41.45;100515.66;4921216;28;45690;-71
2023/06/09 08:09:05;;;;;;;;;30.67;28.33;;;;;26.22;41.58;100503.41;4950182;28;45354;-69
2023/06/09 08:11:32;;;;;;;;;24.67;23.33;;;;;26.38;41.33;100505.91;4935677;28;45866;-69
2023/06/09 08:13:58;;;;;;;;;27.67;26.67;;;;;26.53;41.64;100508.50;4935123;28;45469;-70
2023/06/09 08:16:24;;;;;;;;;29.67;28.00;;;;;26.70;41.25;100508.25;4933477;28;45647;-71
2023/06/09 08:18:49;;;;;;;;;34.00;29.67;;;;;26.80;40.75;100501.28;4933719;28;45649;-71
2023/06/09 08:21:17;;;;;;;;;30.00;24.33;;;;;26.89;40.50;100489.03;4934820;28;46212;-69
2023/06/09 08:23:46;;;;;;;;;32.67;30.33;;;;;27.06;40.36;100490.53;4935167;28;45227;-71
2023/06/09 08:26:11;;;;;;;;;27.00;26.33;;;;;27.12;39.68;100492.75;4932999;28;46151;-70
2023/06/09 08:28:38;;;;;;;;;27.00;24.00;;;;;27.10;39.92;100496.53;4935335;28;45329;-71
2023/06/09 08:31:04;;;;;;;;;24.67;22.67;;;;;27.04;40.37;100469.13;4939545;28;45866;-71
2023/06/09 08:33:34;;;;;;;;;28.00;26.33;;;;;27.16;39.17;100488.03;4939338;28;45374;-69
2023/06/09 08:36:04;;;;;;;;;25.33;23.33;;;;;27.28;39.20;100489.88;4939618;28;45577;-69
2023/06/09 08:38:34;;;;;;;;;24.67;24.67;;;;;27.34;39.25;100476.00;4954340;28;45531;-68
2023/06/09 08:41:10;;;;;;;;;31.67;29.67;;;;;27.43;38.30;100487.91;4939249;28;45453;-68
2023/06/09 08:43:36;;;;;;;;;29.67;26.33;;;;;27.37;37.94;100480.28;4943421;28;45512;-70
2023/06/09 08:46:06;;;;;;;;;29.00;26.67;;;;;27.32;38.61;100472.56;4940425;28;45458;-69
2023/06/09 08:48:34;;;;;;;;;28.67;25.00;;;;;27.43;37.97;100479.84;4936599;28;45228;-71
2023/06/09 08:51:01;;;;;;;;;29.00;25.67;;;;;27.46;37.66;100488.56;4949763;28;45761;-68
2023/06/09 08:53:29;;;;;;;;;25.00;24.00;;;;;27.40;37.78;100480.91;4935789;28;45865;-68
2023/06/09 08:55:55;;;;;;;;;26.67;26.00;;;;;27.37;38.04;100469.53;4936389;28;45728;-71
2023/06/09 08:58:24;;;;;;;;;27.33;24.67;;;;;27.44;37.66;100470.81;4935633;28;45452;-68
2023/06/09 09:00:52;;;;;;;;;26.33;26.33;;;;;27.47;37.58;100446.38;4951250;28;45550;-71
2023/06/09 09:03:18;;;;;;;;;26.67;25.00;;;;;27.79;37.93;100470.91;4954010;28;45464;-68
2023/06/09 09:05:47;;;;;;;;;27.33;27.33;;;;;27.75;37.66;100457.78;4937294;28;45480;-69
2023/06/09 09:08:16;;;;;;;;;29.67;26.33;;;;;27.80;38.50;100471.75;4935340;28;45401;-68
2023/06/09 09:10:42;;;;;;;;;27.00;25.67;;;;;27.73;37.91;100459.75;4934647;28;45453;-69
2023/06/09 09:13:09;;;;;;;;;28.00;26.33;;;;;28.00;38.09;100476.56;4935322;28;46687;-69
2023/06/09 09:15:37;;;;;;;;;24.00;24.00;;;;;28.12;37.91;100464.00;4939595;28;45453;-68
2023/06/09 09:18:07;;;;;;;;;26.00;24.67;;;;;28.26;39.11;100466.50;4937438;28;45316;-68
2023/06/09 09:20:35;;;;;;;;;27.33;25.00;;;;;28.38;37.24;100469.19;4934992;28;46894;-68
2023/06/09 09:23:03;;;;;;;;;28.67;25.00;;;;;28.40;37.15;100457.34;4935089;28;45532;-68
2023/06/09 09:25:30;;;;;;;;;27.33;24.00;;;;;28.52;37.29;100460.94;4939029;28;45404;-68
2023/06/09 09:28:06;;;;;;;;;25.67;25.33;;;;;28.46;36.22;100454.22;4939654;28;45296;-68
2023/06/09 09:30:50;;;;;;;;;29.00;28.00;;;;;28.57;36.31;100452.50;4938725;28;45866;-69
2023/06/09 09:33:22;;;;;;;;;29.33;27.00;;;;;28.62;36.33;100445.81;4933521;28;45457;-70
2023/06/09 09:35:50;;;;;;;;;27.67;26.00;;;;;28.51;36.36;100446.63;4935600;28;45664;-69
2023/06/09 09:38:19;;;;;;;;;23.50;23.50;;;;;28.53;36.23;100443.81;4936490;28;45611;-69
2023/06/09 09:40:47;;;;;;;;;28.67;26.00;;;;;28.57;35.73;100442.63;4936272;28;45716;-69
2023/06/09 09:43:14;;;;;;;;;30.00;28.67;;;;;28.58;36.24;100433.53;4937006;28;45546;-69
2023/06/09 09:45:42;;;;;;;;;28.67;28.67;;;;;28.67;36.26;100442.75;4946901;28;45368;-69
2023/06/09 09:48:10;;;;;;;;;27.00;26.67;;;;;28.70;35.42;100435.25;4957457;28;45369;-69
2023/06/09 09:50:37;;;;;;;;;28.00;26.33;;;;;28.74;35.99;100438.59;4957723;28;46955;-69
2023/06/09 09:53:04;;;;;;;;;26.00;23.33;;;;;28.74;35.91;100443.97;4955083;28;45515;-69
2023/06/09 09:55:30;;;;;;;;;25.67;24.00;;;;;28.70;35.15;100443.34;4955813;28;45526;-69
2023/06/09 09:57:58;;;;;;;;;26.00;24.67;;;;;28.76;35.42;100436.63;4951846;28;45472;-68
2023/06/09 10:00:26;;;;;;;;;26.00;24.33;;;;;28.84;35.13;100434.19;4936681;28;45515;-70
2023/06/09 10:02:59;;;;;;;;;27.67;27.00;;;;;28.97;35.20;100434.03;4940289;28;45506;-69
2023/06/09 10:05:28;;;;;;;;;29.33;27.00;;;;;29.11;35.19;100422.19;4943797;28;45587;-69
2023/06/09 10:07:58;;;;;;;;;28.33;27.33;;;;;29.18;35.17;100423.41;4940851;28;45588;-69
2023/06/09 10:10:26;;;;;;;;;30.00;26.33;;;;;29.24;34.97;100432.84;4940540;28;46133;-70
2023/06/09 10:12:52;;;;;;;;;25.00;24.67;;;;;29.14;34.45;100420.09;4955983;28;45544;-70
2023/06/09 10:15:20;;;;;;;;;25.67;22.67;;;;;29.20;34.28;100431.38;4955223;28;45572;-70
2023/06/09 10:17:47;;;;;;;;;30.00;27.00;;;;;29.16;34.27;100422.66;4944591;28;45582;-69
2023/06/09 10:20:14;;;;;;;;;27.33;26.33;;;;;29.16;34.99;100417.28;4936490;28;46168;-67
2023/06/09 10:22:41;;;;;;;;;29.00;25.33;;;;;29.22;34.97;100429.41;4936600;28;45708;-69
2023/06/09 10:25:08;;;;;;;;;28.00;25.00;;;;;29.28;34.70;100427.09;4936321;28;45500;-68
2023/06/09 10:27:34;;;;;;;;;23.67;23.00;;;;;29.34;33.89;100431.97;4955962;28;45510;-67
2023/06/09 10:30:01;;;;;;;;;24.33;22.67;;;;;29.43;33.07;100427.66;4955788;28;46167;-68
2023/06/09 10:32:30;;;;;;;;;28.67;24.67;;;;;29.33;32.70;100405.97;4956033;28;45547;-68
2023/06/09 10:34:59;;;;;;;;;25.67;23.00;;;;;29.49;33.52;100420.91;4956103;28;45546;-69
2023/06/09 10:37:32;;;;;;;;;29.67;24.33;;;;;29.56;32.73;100430.19;4956168;28;45383;-68
2023/06/09 10:40:15;;;;;;;;;26.67;24.33;;;;;29.44;32.48;100402.38;4954462;28;45479;-68
2023/06/09 10:43:00;;;;;;;;;31.00;25.67;;;;;29.63;32.47;100420.59;4936136;28;45410;-68
2023/06/09 10:45:49;;;;;;;;;24.00;23.33;;;;;29.68;32.63;100410.31;4951124;28;45404;-68
2023/06/09 10:48:45;;;;;;;;;26.00;25.00;;;;;29.96;31.92;100418.81;4937906;28;45496;-69
2023/06/09 10:51:28;;;;;;;;;27.67;23.67;;;;;30.01;32.06;100424.66;4935471;28;46020;-68
2023/06/09 10:54:10;;;;;;;;;28.00;26.33;;;;;30.04;31.50;100420.84;4935803;28;45368;-69
2023/06/09 10:56:40;;;;;;;;;27.67;25.33;;;;;29.90;31.51;100413.91;4950429;28;45404;-69
2023/06/09 10:59:27;;;;;;;;;27.33;25.33;;;;;29.98;31.89;100412.28;4955723;28;45696;-69
2023/06/09 11:02:11;;;;;;;;;26.00;23.00;;;;;30.08;31.68;100422.31;4953571;28;47450;-68
2023/06/09 11:05:00;;;;;;;;;28.00;27.67;;;;;30.23;31.62;100418.28;4954863;28;45415;-69
2023/06/09 11:07:29;;;;;;;;;30.00;27.33;;;;;30.37;31.93;100414.44;4939445;28;45493;-69
2023/06/09 11:09:55;;;;;;;;;30.33;27.67;;;;;30.42;31.62;100418.47;4943278;28;45567;-69
2023/06/09 11:12:27;;;;;;;;;30.33;29.00;;;;;30.36;31.54;100429.78;4958891;28;46152;-68
2023/06/09 11:14:57;;;;;;;;;32.67;28.67;;;;;30.22;31.32;100432.78;4967453;28;45337;-69
2023/06/09 11:17:34;;;;;;;;;35.00;31.33;;;;;30.21;30.66;100431.09;4954994;28;45415;-69